createdAt,value
2019-06-26T00:00:59.148Z,51.00
2019-06-26T00:01:59.136Z,50.41
2019-06-26T00:02:59.086Z,51.00
2019-06-26T00:03:59.064Z,50.41
2019-06-26T00:04:59.101Z,51.20
2019-06-26T00:05:59.047Z,51.79
2019-06-26T00:06:59.062Z,51.50
2019-06-26T00:07:59.026Z,51.59
2019-06-26T00:08:59.016Z,51.99
2019-06-26T00:09:59.018Z,51.89
2019-06-26T00:10:58.988Z,51.99
2019-06-26T00:11:58.980Z,51.79
2019-06-26T00:12:58.970Z,52.09
2019-06-26T00:13:58.975Z,52.19
2019-06-26T00:14:58.971Z,52.19
2019-06-26T00:15:58.932Z,52.48
2019-06-26T00:16:58.930Z,52.51
2019-06-26T00:17:58.914Z,52.28
2019-06-26T00:18:58.900Z,52.09
2019-06-26T00:19:58.904Z,52.98
2019-06-26T00:20:58.879Z,52.68
2019-06-26T00:21:58.886Z,52.19
2019-06-26T00:22:58.852Z,52.78
2019-06-26T00:23:58.845Z,52.28
2019-06-26T00:24:58.859Z,52.80
2019-06-26T00:25:58.845Z,52.87
2019-06-26T00:26:58.814Z,52.61
2019-06-26T00:27:58.806Z,52.58
2019-06-26T00:28:58.800Z,52.58
2019-06-26T00:29:58.778Z,53.20
2019-06-26T00:30:58.776Z,52.78
2019-06-26T00:31:58.812Z,52.61
2019-06-26T00:32:58.744Z,52.78
2019-06-26T00:33:58.752Z,53.00
2019-06-26T00:34:58.728Z,52.41
2019-06-26T00:35:58.713Z,52.19
2019-06-26T00:36:58.717Z,52.19
2019-06-26T00:37:58.716Z,52.21
2019-06-26T00:38:58.707Z,53.30
2019-06-26T00:39:58.673Z,53.08
2019-06-26T00:40:58.664Z,53.47
2019-06-26T00:41:58.657Z,53.57
2019-06-26T00:42:58.643Z,53.86
2019-06-26T00:43:58.648Z,53.96
2019-06-26T00:44:58.620Z,53.69
2019-06-26T00:45:58.601Z,54.09
2019-06-26T00:46:58.602Z,53.99
2019-06-26T00:47:58.591Z,53.89
2019-06-26T00:48:58.579Z,53.30
2019-06-26T00:49:58.602Z,53.59
2019-06-26T00:50:58.562Z,53.79
2019-06-26T00:51:58.560Z,53.59
2019-06-26T00:52:58.541Z,53.89
2019-06-26T00:53:58.517Z,53.37
2019-06-26T00:54:58.509Z,53.99
2019-06-26T00:55:58.517Z,53.69
2019-06-26T00:56:58.482Z,53.69
2019-06-26T00:57:58.473Z,53.99
2019-06-26T00:58:58.462Z,54.28
2019-06-26T00:59:58.448Z,53.30
2019-06-26T01:00:58.435Z,54.28
2019-06-26T01:01:58.458Z,54.28
2019-06-26T01:02:58.421Z,54.58
2019-06-26T01:03:58.400Z,54.58
2019-06-26T01:04:58.391Z,53.30
2019-06-26T01:05:58.420Z,54.28
2019-06-26T01:06:58.395Z,53.39
2019-06-26T01:07:58.376Z,54.48
2019-06-26T01:08:58.364Z,54.48
2019-06-26T01:09:58.336Z,53.27
2019-06-26T01:10:58.326Z,53.59
2019-06-26T01:11:58.320Z,53.96
2019-06-26T01:12:58.335Z,53.89
2019-06-26T01:13:58.539Z,53.89
2019-06-26T01:14:58.280Z,53.69
2019-06-26T01:15:58.551Z,53.89
2019-06-26T01:16:58.261Z,54.16
2019-06-26T01:17:58.267Z,53.69
2019-06-26T01:18:58.252Z,54.26
2019-06-26T01:19:58.227Z,53.79
2019-06-26T01:20:58.217Z,54.09
2019-06-26T01:21:58.204Z,53.89
2019-06-26T01:22:58.201Z,54.28
2019-06-26T01:23:58.186Z,54.28
2019-06-26T01:24:58.209Z,54.09
2019-06-26T01:25:58.159Z,54.28
2019-06-26T01:26:58.295Z,54.09
2019-06-26T01:27:58.155Z,54.19
2019-06-26T01:28:58.126Z,54.28
2019-06-26T01:29:58.118Z,53.99
2019-06-26T01:30:58.167Z,53.89
2019-06-26T01:31:58.094Z,54.19
2019-06-26T01:32:58.094Z,54.09
2019-06-26T01:33:58.077Z,54.09
2019-06-26T01:34:58.099Z,54.48
2019-06-26T01:35:58.050Z,54.68
2019-06-26T01:36:58.071Z,54.28
2019-06-26T01:37:58.040Z,54.38
2019-06-26T01:38:58.044Z,54.38
2019-06-26T01:39:58.009Z,54.58
2019-06-26T01:40:58.038Z,54.28
2019-06-26T01:41:57.990Z,54.38
2019-06-26T01:42:57.994Z,54.38
2019-06-26T01:44:10.590Z,54.28
2019-06-26T01:44:58.955Z,54.78
2019-06-26T01:45:57.943Z,54.09
2019-06-26T01:46:57.944Z,54.58
2019-06-26T01:47:57.984Z,54.48
2019-06-26T01:48:57.923Z,54.48
2019-06-26T01:49:57.905Z,54.68
2019-06-26T01:50:57.909Z,54.28
2019-06-26T01:51:57.874Z,54.28
2019-06-26T01:52:57.863Z,54.48
2019-06-26T01:53:57.856Z,54.28
2019-06-26T01:54:57.879Z,54.88
2019-06-26T01:55:57.840Z,54.19
2019-06-26T01:56:57.821Z,54.78
2019-06-26T01:57:57.811Z,54.58
2019-06-26T01:58:57.807Z,54.58
2019-06-26T01:59:57.812Z,54.68
2019-06-26T02:00:57.792Z,54.58
2019-06-26T02:01:57.803Z,54.78
2019-06-26T02:02:57.769Z,54.58
2019-06-26T02:03:57.752Z,55.07
2019-06-26T02:04:57.735Z,54.48
2019-06-26T02:05:57.727Z,55.07
2019-06-26T02:06:57.797Z,55.07
2019-06-26T02:07:57.710Z,55.37
2019-06-26T02:08:57.736Z,54.97
2019-06-26T02:09:57.676Z,55.18
2019-06-26T02:10:57.675Z,55.27
2019-06-26T02:12:00.407Z,54.78
2019-06-26T02:12:57.644Z,54.97
2019-06-26T02:13:57.639Z,55.07
2019-06-26T02:14:57.651Z,55.18
2019-06-26T02:15:57.615Z,55.18
2019-06-26T02:16:57.608Z,54.88
2019-06-26T02:17:57.597Z,54.88
2019-06-26T02:18:57.586Z,55.37
2019-06-26T02:19:57.578Z,55.18
2019-06-26T02:20:57.553Z,55.57
2019-06-26T02:21:57.599Z,55.07
2019-06-26T02:22:57.536Z,55.77
2019-06-26T02:23:57.542Z,55.37
2019-06-26T02:24:57.511Z,55.07
2019-06-26T02:25:57.503Z,55.66
2019-06-26T02:26:57.489Z,55.47
2019-06-26T02:27:57.520Z,55.18
2019-06-26T02:28:57.470Z,55.57
2019-06-26T02:29:57.455Z,55.47
2019-06-26T02:30:57.443Z,55.37
2019-06-26T02:31:57.434Z,55.66
2019-06-26T02:32:57.423Z,55.47
2019-06-26T02:33:57.471Z,55.57
2019-06-26T02:34:57.403Z,55.47
2019-06-26T02:35:57.387Z,55.57
2019-06-26T02:36:57.391Z,55.37
2019-06-26T02:37:57.373Z,55.27
2019-06-26T02:38:57.360Z,55.27
2019-06-26T02:39:57.365Z,55.87
2019-06-26T02:40:57.349Z,55.18
2019-06-26T02:41:57.336Z,55.47
2019-06-26T02:42:57.313Z,55.18
2019-06-26T02:43:57.298Z,55.37
2019-06-26T02:44:57.304Z,55.27
2019-06-26T02:45:57.304Z,55.57
2019-06-26T02:47:17.750Z,55.57
2019-06-26T02:47:58.258Z,55.77
2019-06-26T02:48:57.249Z,56.36
2019-06-26T02:49:57.242Z,55.77
2019-06-26T02:50:57.230Z,55.77
2019-06-26T02:51:57.242Z,55.66
2019-06-26T02:52:57.202Z,55.77
2019-06-26T02:53:57.192Z,55.87
2019-06-26T02:54:57.190Z,55.77
2019-06-26T02:55:57.172Z,55.57
2019-06-26T02:56:57.159Z,55.57
2019-06-26T02:57:57.167Z,55.77
2019-06-26T02:58:57.135Z,55.77
2019-06-26T02:59:57.132Z,55.66
2019-06-26T03:00:57.126Z,56.06
2019-06-26T03:01:57.101Z,56.06
2019-06-26T03:02:57.090Z,56.06
2019-06-26T03:03:57.107Z,56.19
2019-06-26T03:04:57.083Z,56.19
2019-06-26T03:05:57.058Z,56.19
2019-06-26T03:06:57.053Z,56.29
2019-06-26T03:07:57.035Z,56.19
2019-06-26T03:08:57.025Z,56.19
2019-06-26T03:09:57.051Z,56.26
2019-06-26T03:10:57.004Z,56.26
2019-06-26T03:11:56.991Z,56.16
2019-06-26T03:12:56.987Z,56.29
2019-06-26T03:13:56.968Z,56.26
2019-06-26T03:15:08.163Z,56.19
2019-06-26T03:15:57.977Z,56.09
2019-06-26T03:16:56.937Z,56.19
2019-06-26T03:17:56.924Z,56.19
2019-06-26T03:18:56.914Z,56.16
2019-06-26T03:19:56.917Z,56.19
2019-06-26T03:20:56.894Z,56.26
2019-06-26T03:21:56.892Z,56.29
2019-06-26T03:22:56.871Z,56.19
2019-06-26T03:23:56.858Z,56.29
2019-06-26T03:24:56.854Z,56.29
2019-06-26T03:25:56.837Z,56.68
2019-06-26T03:26:56.825Z,56.26
2019-06-26T03:27:56.854Z,56.09
2019-06-26T03:28:56.806Z,56.19
2019-06-26T03:29:56.816Z,57.07
2019-06-26T03:30:56.785Z,56.98
2019-06-26T03:31:56.773Z,56.38
2019-06-26T03:32:56.760Z,56.48
2019-06-26T03:33:56.780Z,57.07
2019-06-26T03:34:56.773Z,56.58
2019-06-26T03:35:56.732Z,56.48
2019-06-26T03:36:56.745Z,56.09
2019-06-26T03:37:56.712Z,56.19
2019-06-26T03:38:56.698Z,56.19
2019-06-26T03:39:56.712Z,56.98
2019-06-26T03:40:56.682Z,56.09
2019-06-26T03:41:56.659Z,56.38
2019-06-26T03:42:56.727Z,56.48
2019-06-26T03:43:56.638Z,56.29
2019-06-26T03:44:56.627Z,56.38
2019-06-26T03:45:56.629Z,56.78
2019-06-26T03:46:56.605Z,56.48
2019-06-26T03:47:56.599Z,56.58
2019-06-26T03:48:56.610Z,56.58
2019-06-26T03:49:56.585Z,56.58
2019-06-26T03:50:56.572Z,56.58
2019-06-26T03:51:56.557Z,56.68
2019-06-26T03:52:56.538Z,56.68
2019-06-26T03:53:56.531Z,56.58
2019-06-26T03:54:56.534Z,56.68
2019-06-26T03:55:56.517Z,56.48
2019-06-26T03:56:56.503Z,56.68
2019-06-26T03:57:56.502Z,56.58
2019-06-26T03:58:56.477Z,56.58
2019-06-26T03:59:56.464Z,56.58
2019-06-26T04:00:56.469Z,56.68
2019-06-26T04:01:56.509Z,56.68
2019-06-26T04:02:56.430Z,56.29
2019-06-26T04:03:57.528Z,56.78
2019-06-26T04:04:56.406Z,56.48
2019-06-26T04:05:56.412Z,56.38
2019-06-26T04:06:56.413Z,56.68
2019-06-26T04:07:56.379Z,56.78
2019-06-26T04:08:56.364Z,56.68
2019-06-26T04:09:56.353Z,56.58
2019-06-26T04:10:56.352Z,56.38
2019-06-26T04:11:56.328Z,56.78
2019-06-26T04:12:56.351Z,56.58
2019-06-26T04:13:56.306Z,56.68
2019-06-26T04:14:56.299Z,56.38
2019-06-26T04:15:56.309Z,56.58
2019-06-26T04:16:56.277Z,56.58
2019-06-26T04:17:56.265Z,57.67
2019-06-26T04:18:56.249Z,57.89
2019-06-26T04:19:56.259Z,58.36
2019-06-26T04:20:56.237Z,58.29
2019-06-26T04:21:56.230Z,58.00
2019-06-26T04:22:56.206Z,58.78
2019-06-26T04:23:56.194Z,57.79
2019-06-26T04:24:56.187Z,58.29
2019-06-26T04:25:56.206Z,58.49
2019-06-26T04:26:56.163Z,58.59
2019-06-26T04:27:56.152Z,58.49
2019-06-26T04:28:56.139Z,58.69
2019-06-26T04:29:56.141Z,58.88
2019-06-26T04:30:56.123Z,58.78
2019-06-26T04:31:56.133Z,58.78
2019-06-26T04:32:56.097Z,59.47
2019-06-26T04:33:56.087Z,59.11
2019-06-26T04:34:56.079Z,59.31
2019-06-26T04:35:56.077Z,59.11
2019-06-26T04:36:56.063Z,59.31
2019-06-26T04:37:56.064Z,58.51
2019-06-26T04:38:56.033Z,59.41
2019-06-26T04:39:56.020Z,59.04
2019-06-26T04:40:56.014Z,59.50
2019-06-26T04:41:56.023Z,60.13
2019-06-26T04:42:55.986Z,59.33
2019-06-26T04:43:56.004Z,59.53
2019-06-26T04:44:55.968Z,59.53
2019-06-26T04:45:58.508Z,58.74
2019-06-26T04:46:55.950Z,59.63
2019-06-26T04:47:55.931Z,59.63
2019-06-26T04:48:55.927Z,59.44
2019-06-26T04:49:55.928Z,59.44
2019-06-26T04:50:55.901Z,59.73
2019-06-26T04:51:55.893Z,59.33
2019-06-26T04:52:55.875Z,59.53
2019-06-26T04:53:55.894Z,59.44
2019-06-26T04:54:55.852Z,59.53
2019-06-26T04:55:55.864Z,59.63
2019-06-26T04:56:55.834Z,59.53
2019-06-26T04:57:55.818Z,59.83
2019-06-26T04:58:55.809Z,59.53
2019-06-26T04:59:55.797Z,59.73
2019-06-26T05:00:55.784Z,59.63
2019-06-26T05:01:55.803Z,59.46
2019-06-26T05:02:55.767Z,59.27
2019-06-26T05:03:55.761Z,59.44
2019-06-26T05:04:55.751Z,59.06
2019-06-26T05:05:55.730Z,59.66
2019-06-26T05:06:55.809Z,59.46
2019-06-26T05:07:55.747Z,59.56
2019-06-26T05:08:55.696Z,60.06
2019-06-26T05:09:55.693Z,59.99
2019-06-26T05:10:55.688Z,59.86
2019-06-26T05:11:55.669Z,59.79
2019-06-26T05:12:55.653Z,59.59
2019-06-26T05:13:55.705Z,59.89
2019-06-26T05:14:55.630Z,59.99
2019-06-26T05:15:55.618Z,60.19
2019-06-26T05:16:55.620Z,60.38
2019-06-26T05:17:55.605Z,60.28
2019-06-26T05:18:55.587Z,60.19
2019-06-26T05:19:55.603Z,60.08
2019-06-26T05:20:55.567Z,60.08
2019-06-26T05:21:55.559Z,60.19
2019-06-26T05:22:55.547Z,60.08
2019-06-26T05:23:55.530Z,60.58
2019-06-26T05:24:55.517Z,60.58
2019-06-26T05:25:55.515Z,60.58
2019-06-26T05:26:55.522Z,60.58
2019-06-26T05:27:55.503Z,60.58
2019-06-26T05:28:55.474Z,60.08
2019-06-26T05:29:55.464Z,60.38
2019-06-26T05:30:55.453Z,60.58
2019-06-26T05:31:55.448Z,60.88
2019-06-26T05:32:55.488Z,60.88
2019-06-26T05:33:55.431Z,60.78
2019-06-26T05:34:55.417Z,60.78
2019-06-26T05:35:55.403Z,60.97
2019-06-26T05:36:55.393Z,60.97
2019-06-26T05:37:55.391Z,61.27
2019-06-26T05:38:55.378Z,60.97
2019-06-26T05:39:55.380Z,60.88
2019-06-26T05:40:55.346Z,61.27
2019-06-26T05:41:55.346Z,60.78
2019-06-26T05:42:55.331Z,60.88
2019-06-26T05:43:55.328Z,60.97
2019-06-26T05:44:55.379Z,60.78
2019-06-26T05:45:55.310Z,60.48
2019-06-26T05:46:55.276Z,60.68
2019-06-26T05:47:55.270Z,60.78
2019-06-26T05:48:55.262Z,60.45
2019-06-26T05:49:55.254Z,60.55
2019-06-26T05:50:55.234Z,60.35
2019-06-26T05:51:55.258Z,60.38
2019-06-26T05:52:55.220Z,60.45
2019-06-26T05:53:55.195Z,60.35
2019-06-26T05:54:55.191Z,60.16
2019-06-26T05:55:55.186Z,60.25
2019-06-26T05:56:55.173Z,60.55
2019-06-26T05:57:55.191Z,60.25
2019-06-26T05:58:55.143Z,59.95
2019-06-26T05:59:55.139Z,59.76
2019-06-26T06:00:55.127Z,59.99
2019-06-26T06:01:55.110Z,59.66
2019-06-26T06:02:55.118Z,59.56
2019-06-26T06:03:55.115Z,59.86
2019-06-26T06:04:55.076Z,59.46
2019-06-26T06:05:55.064Z,59.89
2019-06-26T06:06:55.052Z,59.86
2019-06-26T06:07:55.089Z,59.39
2019-06-26T06:08:55.032Z,59.36
2019-06-26T06:09:55.020Z,58.60
2019-06-26T06:10:58.141Z,58.87
2019-06-26T06:11:55.094Z,58.87
2019-06-26T06:12:54.984Z,58.97
2019-06-26T06:13:54.980Z,58.70
2019-06-26T06:14:55.090Z,59.46
2019-06-26T06:15:54.958Z,59.46
2019-06-26T06:16:54.944Z,59.06
2019-06-26T06:17:54.973Z,59.56
2019-06-26T06:18:54.931Z,59.56
2019-06-26T06:19:54.918Z,59.06
2019-06-26T06:20:54.895Z,59.46
2019-06-26T06:21:54.886Z,59.27
2019-06-26T06:22:54.902Z,59.56
2019-06-26T06:23:54.875Z,59.56
2019-06-26T06:24:54.857Z,59.56
2019-06-26T06:25:54.849Z,59.27
2019-06-26T06:26:54.833Z,59.66
2019-06-26T06:27:54.826Z,59.56
2019-06-26T06:28:54.871Z,58.77
2019-06-26T06:29:54.804Z,58.37
2019-06-26T06:30:54.883Z,58.67
2019-06-26T06:31:54.798Z,58.67
2019-06-26T06:32:54.919Z,58.37
2019-06-26T06:33:54.780Z,58.70
2019-06-26T06:34:54.741Z,58.67
2019-06-26T06:35:54.824Z,58.77
2019-06-26T06:36:54.785Z,58.40
2019-06-26T06:37:54.763Z,59.06
2019-06-26T06:38:55.053Z,59.46
2019-06-26T06:39:54.831Z,59.69
2019-06-26T06:40:54.726Z,58.77
2019-06-26T06:41:54.837Z,59.66
2019-06-26T06:42:54.655Z,59.56
2019-06-26T06:43:54.785Z,59.49
2019-06-26T06:44:54.810Z,58.90
2019-06-26T06:45:54.616Z,58.97
2019-06-26T06:47:03.962Z,58.60
2019-06-26T06:47:55.629Z,58.70
2019-06-26T06:48:54.612Z,58.40
2019-06-26T06:49:54.576Z,58.07
2019-06-26T06:50:54.566Z,57.88
2019-06-26T06:51:54.618Z,58.47
2019-06-26T06:52:54.639Z,58.18
2019-06-26T06:53:54.539Z,58.47
2019-06-26T06:54:54.538Z,58.80
2019-06-26T06:55:54.652Z,58.90
2019-06-26T06:56:54.540Z,58.97
2019-06-26T06:57:54.499Z,58.87
2019-06-26T06:58:54.555Z,59.06
2019-06-26T06:59:54.505Z,58.97
2019-06-26T07:00:54.506Z,58.77
2019-06-26T07:01:54.453Z,58.97
2019-06-26T07:02:54.447Z,59.06
2019-06-26T07:03:54.549Z,58.77
2019-06-26T07:04:54.494Z,58.87
2019-06-26T07:05:54.453Z,59.06
2019-06-26T07:06:54.550Z,58.97
2019-06-26T07:07:54.431Z,59.17
2019-06-26T07:08:54.391Z,58.87
2019-06-26T07:09:54.409Z,58.77
2019-06-26T07:10:54.340Z,59.17
2019-06-26T07:11:54.335Z,59.17
2019-06-26T07:12:54.362Z,58.67
2019-06-26T07:13:54.312Z,58.97
2019-06-26T07:14:54.303Z,58.97
2019-06-26T07:15:54.285Z,58.97
2019-06-26T07:16:54.313Z,58.37
2019-06-26T07:17:54.285Z,59.06
2019-06-26T07:18:54.251Z,59.06
2019-06-26T07:19:54.249Z,58.47
2019-06-26T07:20:54.248Z,58.47
2019-06-26T07:21:54.222Z,58.37
2019-06-26T07:22:54.584Z,58.57
2019-06-26T07:23:54.195Z,58.47
2019-06-26T07:24:54.355Z,57.98
2019-06-26T07:25:54.183Z,58.37
2019-06-26T07:26:54.322Z,58.05
2019-06-26T07:27:54.155Z,58.05
2019-06-26T07:28:55.015Z,57.95
2019-06-26T07:29:54.501Z,58.05
2019-06-26T07:30:54.119Z,57.35
2019-06-26T07:31:54.112Z,57.98
2019-06-26T07:32:54.094Z,56.59
2019-06-26T07:33:55.641Z,57.16
2019-06-26T07:34:54.189Z,57.46
2019-06-26T07:35:54.066Z,56.57
2019-06-26T07:36:54.083Z,56.96
2019-06-26T07:37:54.041Z,56.57
2019-06-26T07:38:54.058Z,56.57
2019-06-26T07:39:57.779Z,56.57
2019-06-26T07:40:55.045Z,56.96
2019-06-26T07:41:53.995Z,56.96
2019-06-26T07:42:53.990Z,56.96
2019-06-26T07:43:54.008Z,56.96
2019-06-26T07:44:53.974Z,57.16
2019-06-26T07:45:53.966Z,56.96
2019-06-26T07:46:53.944Z,56.86
2019-06-26T07:47:53.980Z,56.86
2019-06-26T07:48:57.380Z,57.35
2019-06-26T07:49:54.060Z,57.46
2019-06-26T07:50:53.917Z,57.35
2019-06-26T07:51:53.897Z,57.16
2019-06-26T07:52:54.100Z,57.46
2019-06-26T07:53:53.972Z,58.25
2019-06-26T07:54:53.859Z,57.85
2019-06-26T07:55:53.866Z,57.75
2019-06-26T07:56:53.849Z,57.95
2019-06-26T07:57:53.836Z,58.15
2019-06-26T07:58:53.810Z,58.45
2019-06-26T07:59:53.811Z,57.85
2019-06-26T08:00:54.490Z,57.85
2019-06-26T08:01:53.825Z,57.46
2019-06-26T08:02:56.680Z,58.15
2019-06-26T08:03:53.752Z,57.46
2019-06-26T08:04:53.780Z,57.65
2019-06-26T08:05:53.731Z,56.57
2019-06-26T08:06:53.730Z,56.46
2019-06-26T08:07:53.733Z,56.46
2019-06-26T08:08:53.751Z,56.86
2019-06-26T08:09:53.730Z,56.27
2019-06-26T08:10:53.687Z,56.17
2019-06-26T08:11:53.721Z,56.46
2019-06-26T08:12:53.662Z,55.85
2019-06-26T08:13:53.641Z,55.58
2019-06-26T08:14:53.697Z,55.75
2019-06-26T08:15:53.698Z,55.75
2019-06-26T08:16:53.615Z,55.45
2019-06-26T08:18:00.637Z,55.85
2019-06-26T08:18:54.635Z,55.26
2019-06-26T08:19:53.610Z,55.85
2019-06-26T08:21:10.901Z,55.55
2019-06-26T08:21:54.550Z,55.15
2019-06-26T08:22:53.599Z,54.96
2019-06-26T08:23:53.539Z,55.05
2019-06-26T08:24:53.522Z,55.55
2019-06-26T08:25:53.523Z,55.35
2019-06-26T08:26:53.496Z,55.26
2019-06-26T08:27:53.495Z,55.45
2019-06-26T08:28:53.485Z,55.65
2019-06-26T08:29:53.462Z,54.96
2019-06-26T08:30:53.463Z,54.86
2019-06-26T08:31:53.445Z,54.46
2019-06-26T08:32:53.569Z,54.56
2019-06-26T08:33:53.528Z,54.73
2019-06-26T08:34:53.436Z,54.17
2019-06-26T08:35:53.401Z,54.34
2019-06-26T08:36:53.403Z,54.27
2019-06-26T08:38:08.917Z,54.46
2019-06-26T08:38:54.365Z,54.27
2019-06-26T08:39:53.562Z,54.24
2019-06-26T08:40:53.346Z,54.17
2019-06-26T08:41:53.330Z,54.44
2019-06-26T08:42:53.318Z,54.14
2019-06-26T08:43:53.306Z,53.85
2019-06-26T08:44:53.308Z,53.55
2019-06-26T08:45:53.520Z,53.45
2019-06-26T08:46:53.294Z,53.94
2019-06-26T08:47:53.268Z,53.75
2019-06-26T08:48:53.251Z,53.94
2019-06-26T08:49:53.373Z,54.34
2019-06-26T08:50:53.336Z,53.94
2019-06-26T08:51:53.265Z,53.97
2019-06-26T08:52:53.215Z,53.64
2019-06-26T08:53:53.200Z,54.04
2019-06-26T08:54:53.204Z,54.44
2019-06-26T08:55:53.187Z,53.75
2019-06-26T08:56:53.206Z,54.14
2019-06-26T08:57:53.184Z,54.14
2019-06-26T08:58:53.168Z,54.04
2019-06-26T08:59:53.132Z,54.44
2019-06-26T09:00:53.163Z,54.53
2019-06-26T09:01:53.118Z,53.15
2019-06-26T09:02:53.103Z,54.24
2019-06-26T09:03:53.097Z,54.14
2019-06-26T09:04:53.100Z,54.14
2019-06-26T09:05:53.099Z,54.24
2019-06-26T09:06:53.092Z,54.14
2019-06-26T09:07:53.119Z,54.24
2019-06-26T09:08:53.037Z,54.14
2019-06-26T09:09:53.070Z,54.14
2019-06-26T09:10:53.012Z,54.44
2019-06-26T09:11:53.017Z,53.94
2019-06-26T09:12:53.016Z,54.14
2019-06-26T09:13:53.041Z,54.14
2019-06-26T09:14:52.992Z,54.14
2019-06-26T09:15:52.956Z,53.64
2019-06-26T09:16:52.986Z,54.04
2019-06-26T09:17:52.937Z,53.75
2019-06-26T09:18:52.921Z,54.04
2019-06-26T09:19:52.923Z,54.44
2019-06-26T09:20:52.903Z,54.04
2019-06-26T09:21:52.916Z,53.75
2019-06-26T09:22:52.902Z,53.85
2019-06-26T09:23:52.870Z,53.45
2019-06-26T09:24:52.862Z,54.02
2019-06-26T09:25:52.850Z,54.11
2019-06-26T09:26:52.936Z,54.44
2019-06-26T09:27:52.889Z,54.51
2019-06-26T09:28:52.827Z,54.31
2019-06-26T09:29:52.803Z,54.41
2019-06-26T09:30:52.862Z,54.11
2019-06-26T09:31:52.780Z,54.21
2019-06-26T09:32:52.765Z,54.31
2019-06-26T09:33:52.759Z,54.02
2019-06-26T09:34:52.746Z,53.81
2019-06-26T09:35:52.763Z,53.33
2019-06-26T09:36:52.746Z,53.33
2019-06-26T09:37:52.713Z,53.62
2019-06-26T09:38:52.699Z,53.72
2019-06-26T09:39:52.740Z,53.81
2019-06-26T09:40:52.684Z,53.81
2019-06-26T09:41:53.148Z,53.52
2019-06-26T09:42:52.661Z,53.92
2019-06-26T09:43:52.687Z,53.92
2019-06-26T09:44:52.635Z,54.21
2019-06-26T09:45:52.635Z,53.52
2019-06-26T09:46:52.623Z,53.81
2019-06-26T09:47:52.609Z,53.81
2019-06-26T09:48:53.668Z,54.02
2019-06-26T09:49:52.583Z,54.02
2019-06-26T09:50:52.572Z,54.31
2019-06-26T09:51:52.594Z,53.89
2019-06-26T09:52:52.612Z,54.28
2019-06-26T09:53:52.547Z,53.30
2019-06-26T09:54:52.560Z,53.99
2019-06-26T09:55:52.527Z,54.09
2019-06-26T09:56:52.505Z,53.79
2019-06-26T09:57:52.521Z,54.19
2019-06-26T09:58:52.503Z,53.39
2019-06-26T09:59:52.473Z,53.10
2019-06-26T10:00:52.470Z,52.51
2019-06-26T10:01:52.463Z,52.41
2019-06-26T10:02:52.500Z,53.20
2019-06-26T10:03:52.443Z,52.51
2019-06-26T10:04:52.415Z,53.10
2019-06-26T10:05:52.408Z,52.91
2019-06-26T10:06:52.388Z,52.80
2019-06-26T10:07:52.391Z,52.61
2019-06-26T10:08:54.438Z,52.80
2019-06-26T10:09:52.361Z,52.41
2019-06-26T10:10:52.359Z,52.61
2019-06-26T10:11:52.367Z,52.01
2019-06-26T10:12:52.404Z,52.11
2019-06-26T10:13:52.319Z,52.01
2019-06-26T10:14:52.301Z,50.90
2019-06-26T10:15:52.322Z,50.63
2019-06-26T10:16:52.433Z,50.93
2019-06-26T10:17:52.271Z,50.14
2019-06-26T10:19:08.644Z,50.54
2019-06-26T10:19:54.250Z,50.34
2019-06-26T10:20:52.256Z,50.61
2019-06-26T10:21:52.231Z,49.94
2019-06-26T10:22:52.221Z,49.22
2019-06-26T10:23:52.225Z,49.62
2019-06-26T10:24:52.214Z,50.31
2019-06-26T10:25:52.264Z,50.90
2019-06-26T10:26:52.212Z,50.81
2019-06-26T10:27:52.175Z,50.71
2019-06-26T10:28:52.475Z,51.30
2019-06-26T10:29:52.210Z,50.81
2019-06-26T10:30:52.128Z,50.90
2019-06-26T10:31:52.164Z,50.51
2019-06-26T10:32:52.099Z,50.51
2019-06-26T10:33:52.099Z,50.90
2019-06-26T10:34:52.248Z,50.61
2019-06-26T10:35:52.071Z,50.68
2019-06-26T10:36:52.069Z,50.29
2019-06-26T10:37:52.050Z,50.38
2019-06-26T10:38:52.055Z,49.69
2019-06-26T10:39:52.025Z,49.79
2019-06-26T10:40:52.017Z,49.50
2019-06-26T10:41:54.929Z,49.10
2019-06-26T10:42:52.038Z,49.60
2019-06-26T10:43:52.161Z,49.60
2019-06-26T10:44:51.972Z,50.29
2019-06-26T10:45:51.975Z,50.19
2019-06-26T10:46:51.985Z,50.38
2019-06-26T10:47:52.037Z,50.19
2019-06-26T10:48:52.100Z,50.07
2019-06-26T10:49:51.912Z,50.19
2019-06-26T10:50:58.134Z,50.49
2019-06-26T10:51:52.899Z,50.29
2019-06-26T10:52:51.881Z,50.68
2019-06-26T10:53:51.937Z,50.88
2019-06-26T10:54:51.884Z,50.78
2019-06-26T10:55:51.845Z,50.98
2019-06-26T10:56:51.835Z,50.88
2019-06-26T10:57:51.873Z,51.18
2019-06-26T10:58:51.864Z,50.49
2019-06-26T10:59:55.466Z,50.78
2019-06-26T11:00:51.817Z,50.49
2019-06-26T11:01:51.851Z,50.98
2019-06-26T11:02:51.768Z,50.29
2019-06-26T11:03:51.814Z,50.49
2019-06-26T11:04:51.763Z,50.56
2019-06-26T11:05:51.767Z,50.59
2019-06-26T11:06:51.739Z,51.15
2019-06-26T11:07:51.714Z,50.76
2019-06-26T11:08:51.716Z,50.76
2019-06-26T11:09:51.721Z,50.66
2019-06-26T11:10:51.682Z,50.29
2019-06-26T11:11:51.755Z,50.07
2019-06-26T11:12:51.730Z,50.38
2019-06-26T11:13:51.650Z,50.07
2019-06-26T11:14:51.677Z,50.29
2019-06-26T11:15:51.626Z,50.26
2019-06-26T11:16:51.730Z,50.29
2019-06-26T11:17:51.644Z,50.19
2019-06-26T11:18:51.965Z,50.38
2019-06-26T11:19:55.157Z,50.49
2019-06-26T11:20:51.577Z,50.68
2019-06-26T11:21:51.574Z,51.07
2019-06-26T11:22:51.572Z,50.98
2019-06-26T11:23:51.541Z,50.88
2019-06-26T11:24:51.539Z,51.18
2019-06-26T11:25:51.531Z,50.88
2019-06-26T11:26:51.520Z,49.99
2019-06-26T11:27:54.532Z,50.09
2019-06-26T11:28:51.486Z,49.99
2019-06-26T11:29:51.517Z,49.50
2019-06-26T11:30:51.497Z,50.19
2019-06-26T11:31:51.457Z,50.09
2019-06-26T11:32:51.602Z,50.68
2019-06-26T11:33:51.611Z,51.07
2019-06-26T11:34:52.102Z,51.07
2019-06-26T11:35:51.516Z,50.98
2019-06-26T11:37:03.200Z,50.88
2019-06-26T11:37:52.613Z,50.88
2019-06-26T11:38:51.407Z,50.29
2019-06-26T11:39:51.391Z,51.28
2019-06-26T11:40:51.414Z,50.49
2019-06-26T11:41:51.397Z,50.09
2019-06-26T11:42:51.368Z,50.09
2019-06-26T11:43:51.323Z,49.90
2019-06-26T11:44:51.337Z,49.99
2019-06-26T11:45:51.342Z,50.49
2019-06-26T11:46:51.285Z,50.29
2019-06-26T11:47:51.392Z,50.38
2019-06-26T11:48:51.366Z,50.68
2019-06-26T11:49:59.877Z,50.88
2019-06-26T11:50:52.253Z,50.98
2019-06-26T11:51:51.322Z,50.90
2019-06-26T11:52:51.390Z,50.81
2019-06-26T11:53:51.267Z,50.81
2019-06-26T11:55:01.834Z,50.71
2019-06-26T11:55:52.218Z,50.61
2019-06-26T11:56:51.298Z,50.51
2019-06-26T11:57:51.261Z,51.30
2019-06-26T11:58:51.161Z,50.81
2019-06-26T11:59:51.178Z,50.81
2019-06-26T12:00:51.203Z,50.90
2019-06-26T12:01:51.122Z,50.90
2019-06-26T12:02:51.196Z,51.10
2019-06-26T12:03:51.185Z,51.40
2019-06-26T12:04:51.098Z,51.50
2019-06-26T12:05:51.090Z,50.90
2019-06-26T12:06:51.127Z,50.98
2019-06-26T12:07:51.094Z,50.71
2019-06-26T12:08:51.089Z,50.81
2019-06-26T12:09:51.186Z,51.00
2019-06-26T12:10:51.029Z,50.71
2019-06-26T12:11:51.024Z,50.51
2019-06-26T12:12:51.024Z,50.81
2019-06-26T12:13:51.006Z,50.81
2019-06-26T12:14:51.069Z,50.51
2019-06-26T12:15:51.082Z,50.41
2019-06-26T12:16:51.036Z,51.40
2019-06-26T12:17:51.015Z,51.67
2019-06-26T12:18:50.942Z,51.57
2019-06-26T12:19:50.924Z,51.57
2019-06-26T12:20:50.944Z,51.18
2019-06-26T12:21:50.928Z,51.18
2019-06-26T12:22:51.014Z,51.28
2019-06-26T12:23:50.876Z,51.28
2019-06-26T12:24:50.872Z,51.57
2019-06-26T12:25:50.898Z,50.68
2019-06-26T12:26:50.881Z,51.18
2019-06-26T12:27:50.842Z,51.28
2019-06-26T12:28:50.827Z,50.59
2019-06-26T12:29:50.948Z,50.68
2019-06-26T12:30:50.812Z,50.78
2019-06-26T12:31:50.796Z,50.38
2019-06-26T12:33:02.223Z,50.98
2019-06-26T12:33:51.801Z,50.88
2019-06-26T12:34:50.767Z,50.78
2019-06-26T12:35:50.845Z,50.56
2019-06-26T12:36:50.827Z,50.98
2019-06-26T12:37:50.852Z,50.85
2019-06-26T12:38:50.935Z,50.85
2019-06-26T12:39:50.714Z,50.95
2019-06-26T12:40:50.719Z,50.98
2019-06-26T12:41:50.688Z,50.85
2019-06-26T12:42:50.691Z,50.88
2019-06-26T12:43:50.665Z,50.95
2019-06-26T12:44:50.691Z,50.85
2019-06-26T12:45:50.648Z,50.85
2019-06-26T12:46:50.668Z,50.85
2019-06-26T12:47:50.679Z,50.76
2019-06-26T12:48:50.614Z,51.05
2019-06-26T12:49:50.618Z,50.76
2019-06-26T12:50:50.612Z,51.05
2019-06-26T12:51:50.580Z,51.35
2019-06-26T12:52:50.602Z,50.85